Time;durP1;ratioP1;P1;durP2;ratioP2;P2;SDS_P1;SDS_P2;PMS_P1;PMS_P2;Temp;Humidity;BMP_temperature;BMP_pressure;BME280_temperature;BME280_humidity;BME280_pressure;Samples;Min_cycle;Max_cycle;Signal;HPM_P1;HPM_P2
2024/03/14 00:01:42;;;;;;;14.90;8.90;;;;;;;4.12;75.80;100764.04;108218;1251;73379;-67
2024/03/14 00:04:10;;;;;;;16.30;9.50;;;;;;;4.12;75.84;100766.76;108171;1252;71461;-67
2024/03/14 00:06:38;;;;;;;16.80;9.40;;;;;;;4.11;76.08;100762.84;108242;1253;72163;-69
2024/03/14 00:09:08;;;;;;;16.90;10.10;;;;;;;4.10;76.41;100759.11;108268;1252;60218;-68
2024/03/14 00:11:36;;;;;;;15.50;10.00;;;;;;;4.09;76.44;100758.88;108365;1253;61079;-68
2024/03/14 00:14:04;;;;;;;16.60;9.30;;;;;;;4.11;76.63;100758.05;108299;1256;73363;-67
2024/03/14 00:16:32;;;;;;;17.40;10.50;;;;;;;4.09;76.81;100757.45;108183;1253;72865;-67
2024/03/14 00:18:59;;;;;;;14.40;9.20;;;;;;;4.06;77.02;100755.63;108252;1251;72719;-67
2024/03/14 00:21:28;;;;;;;16.40;10.30;;;;;;;4.01;77.23;100756.54;108239;1253;61254;-68
2024/03/14 00:23:56;;;;;;;17.00;9.40;;;;;;;3.97;77.23;100751.92;108326;1253;61103;-67
2024/03/14 00:26:24;;;;;;;16.70;9.60;;;;;;;3.94;77.27;100742.65;108145;1252;74195;-67
2024/03/14 00:28:52;;;;;;;16.50;9.50;;;;;;;3.93;77.40;100738.02;108108;1253;72846;-70
2024/03/14 00:31:20;;;;;;;17.10;10.10;;;;;;;3.94;77.79;100742.73;108224;1253;71545;-68
2024/03/14 00:33:48;;;;;;;18.90;9.90;;;;;;;3.92;78.22;100745.23;108186;1253;61251;-68
2024/03/14 00:36:16;;;;;;;16.50;10.20;;;;;;;3.92;78.90;100750.96;108195;1253;61119;-67
2024/03/14 00:38:44;;;;;;;15.30;10.10;;;;;;;3.91;79.45;100750.54;108336;1252;74656;-67
2024/03/14 00:41:13;;;;;;;16.60;9.80;;;;;;;3.90;80.10;100754.66;108332;1253;71923;-66
2024/03/14 00:43:41;;;;;;;14.60;9.10;;;;;;;3.92;80.50;100755.44;108063;1253;72706;-67
2024/03/14 00:46:14;;;;;;;15.50;9.80;;;;;;;3.92;80.85;100754.14;108012;1253;61299;-69
2024/03/14 00:48:43;;;;;;;14.70;10.10;;;;;;;3.91;80.93;100750.63;108176;1252;61119;-68
2024/03/14 00:51:11;;;;;;;14.80;10.10;;;;;;;3.91;80.92;100753.08;108333;1255;73372;-68
2024/03/14 00:53:39;;;;;;;15.00;9.90;;;;;;;3.92;80.87;100755.59;108169;1253;71811;-68
2024/03/14 00:56:07;;;;;;;16.30;9.90;;;;;;;3.93;80.81;100753.39;108205;1253;72972;-68
2024/03/14 00:58:35;;;;;;;17.90;11.20;;;;;;;3.94;80.75;100748.27;108195;1253;61096;-67
2024/03/14 01:01:03;;;;;;;16.00;10.60;;;;;;;3.97;80.63;100745.17;108201;1252;61135;-67
2024/03/14 01:03:32;;;;;;;17.50;10.70;;;;;;;3.99;80.45;100747.73;108306;1253;74660;-66
2024/03/14 01:05:59;;;;;;;16.30;10.50;;;;;;;4.01;80.23;100746.58;108270;1253;71579;-67
2024/03/14 01:08:28;;;;;;;15.80;10.10;;;;;;;4.01;79.68;100743.16;108265;1252;72443;-67
2024/03/14 01:10:56;;;;;;;17.10;10.20;;;;;;;4.00;79.34;100740.96;108291;1251;62939;-67
2024/03/14 01:13:25;;;;;;;19.30;9.90;;;;;;;3.98;78.94;100736.31;108361;1252;61078;-67
2024/03/14 01:15:56;;;;;;;13.90;8.90;;;;;;;3.98;78.43;100734.27;108155;1253;74705;-66
2024/03/14 01:18:26;;;;;;;15.10;9.50;;;;;;;3.94;78.05;100733.91;108100;1252;71219;-68
2024/03/14 01:20:54;;;;;;;17.70;10.50;;;;;;;3.90;77.74;100731.04;108156;1253;71400;-67
2024/03/14 01:23:22;;;;;;;16.10;9.10;;;;;;;3.89;77.46;100734.30;108175;1253;61230;-67
2024/03/14 01:25:50;;;;;;;12.60;7.80;;;;;;;3.86;77.15;100732.52;108160;1253;61246;-66
2024/03/14 01:28:17;;;;;;;13.60;9.10;;;;;;;3.84;76.89;100728.41;108204;1253;73365;-67
2024/03/14 01:30:45;;;;;;;13.00;8.00;;;;;;;3.83;76.76;100728.23;108238;1253;72723;-67
2024/03/14 01:33:13;;;;;;;14.20;8.70;;;;;;;3.81;76.64;100731.80;108141;1252;71291;-67
2024/03/14 01:35:41;;;;;;;12.60;7.80;;;;;;;3.78;76.56;100729.77;108185;1252;61252;-67
2024/03/14 01:38:09;;;;;;;16.50;9.20;;;;;;;3.75;76.70;100733.80;108166;1253;61078;-67
2024/03/14 01:40:37;;;;;;;16.40;10.20;;;;;;;3.72;76.79;100736.87;108123;1252;74729;-67
2024/03/14 01:43:05;;;;;;;14.70;9.70;;;;;;;3.70;76.88;100738.69;108141;1253;71121;-67
2024/03/14 01:45:32;;;;;;;18.50;10.10;;;;;;;3.70;76.94;100736.47;107986;1253;70807;-66
2024/03/14 01:48:00;;;;;;;18.00;9.50;;;;;;;3.70;76.92;100738.41;108104;1252;61116;-67
2024/03/14 01:50:29;;;;;;;12.90;8.50;;;;;;;3.69;76.94;100739.44;108200;1252;61079;-67
2024/03/14 01:52:57;;;;;;;14.40;8.90;;;;;;;3.66;77.06;100736.36;108170;1252;73464;-67
2024/03/14 01:55:25;;;;;;;14.90;8.90;;;;;;;3.66;77.02;100735.83;108190;1253;71727;-67
2024/03/14 01:57:53;;;;;;;13.50;7.90;;;;;;;3.67;76.89;100734.97;108104;1256;70413;-67
2024/03/14 02:00:24;;;;;;;13.70;8.80;;;;;;;3.66;76.65;100734.08;108100;1254;59893;-67
2024/03/14 02:02:52;;;;;;;11.00;7.30;;;;;;;3.66;76.76;100733.31;108093;1253;61247;-66
2024/03/14 02:05:32;;;;;;;14.70;8.30;;;;;;;3.66;76.41;100731.52;108249;1253;74679;-67
2024/03/14 02:07:59;;;;;;;16.60;9.00;;;;;;;3.63;76.32;100729.09;108316;1252;71946;-68
2024/03/14 02:10:28;;;;;;;13.30;7.70;;;;;;;3.61;76.14;100731.11;108192;1253;71636;-67
2024/03/14 02:12:56;;;;;;;14.40;8.60;;;;;;;3.59;76.22;100734.63;108140;1254;61102;-68
2024/03/14 02:15:23;;;;;;;13.00;8.30;;;;;;;3.58;76.21;100735.89;108161;1253;61114;-67
2024/03/14 02:17:51;;;;;;;13.00;7.80;;;;;;;3.56;76.14;100737.71;108241;1253;73331;-67
2024/03/14 02:20:20;;;;;;;13.00;7.80;;;;;;;3.52;75.76;100736.95;108227;1253;72765;-66
2024/03/14 02:22:49;;;;;;;13.90;8.40;;;;;;;3.47;75.40;100734.55;108122;1252;71356;-66
2024/03/14 02:25:18;;;;;;;11.00;7.50;;;;;;;3.43;75.10;100737.73;108197;1253;61099;-68
2024/03/14 02:27:46;;;;;;;12.80;7.40;;;;;;;3.41;74.87;100738.14;108129;1253;61111;-68
2024/03/14 02:30:14;;;;;;;13.30;8.30;;;;;;;3.39;74.92;100736.55;108056;1253;74552;-66
2024/03/14 02:32:41;;;;;;;12.80;7.40;;;;;;;3.38;74.80;100735.30;108199;1253;72407;-67
2024/03/14 02:35:09;;;;;;;12.40;8.00;;;;;;;3.37;74.85;100735.75;108217;1253;72690;-68
2024/03/14 02:37:37;;;;;;;12.20;7.00;;;;;;;3.36;74.82;100737.58;108279;1254;61765;-67
2024/03/14 02:40:06;;;;;;;14.80;8.40;;;;;;;3.34;74.85;100738.15;108257;1253;61088;-66
2024/03/14 02:42:35;;;;;;;12.20;7.80;;;;;;;3.31;75.04;100738.71;108181;1253;73363;-67
2024/03/14 02:45:07;;;;;;;14.90;8.20;;;;;;;3.28;75.16;100735.17;108156;1253;72988;-66
2024/03/14 02:47:35;;;;;;;12.40;7.70;;;;;;;3.25;75.32;100739.13;108280;1253;72442;-67
2024/03/14 02:50:06;;;;;;;12.90;7.90;;;;;;;3.23;75.56;100739.02;108269;1253;61222;-66
2024/03/14 02:52:34;;;;;;;14.00;7.90;;;;;;;3.21;75.71;100739.08;108233;1253;61096;-67
2024/03/14 02:55:01;;;;;;;11.80;7.20;;;;;;;3.18;75.73;100731.05;107991;1253;73451;-67
2024/03/14 02:57:30;;;;;;;12.40;8.10;;;;;;;3.14;75.95;100729.84;108104;1253;71419;-67
2024/03/14 02:59:58;;;;;;;14.90;8.00;;;;;;;3.12;76.02;100725.20;108157;1257;71341;-68
2024/03/14 03:02:26;;;;;;;11.90;8.00;;;;;;;3.09;76.29;100723.30;108066;1254;61120;-66
2024/03/14 03:04:56;;;;;;;12.50;7.80;;;;;;;3.08;76.47;100720.50;108203;1253;59584;-67
2024/03/14 03:07:26;;;;;;;13.90;7.80;;;;;;;3.08;76.55;100722.85;108168;1253;74788;-68
2024/03/14 03:09:54;;;;;;;13.00;7.80;;;;;;;3.07;76.58;100720.79;108165;1252;72480;-66
2024/03/14 03:12:22;;;;;;;14.60;8.20;;;;;;;3.07;76.71;100715.55;108251;1253;72718;-67
2024/03/14 03:14:52;;;;;;;12.30;7.40;;;;;;;3.07;76.60;100714.34;108219;1253;61129;-68
2024/03/14 03:17:20;;;;;;;13.70;8.30;;;;;;;3.05;76.41;100714.98;108260;1253;61094;-67
2024/03/14 03:19:49;;;;;;;14.10;8.20;;;;;;;3.06;76.46;100714.02;108250;1253;73336;-67
2024/03/14 03:22:17;;;;;;;13.10;7.60;;;;;;;3.07;76.11;100715.63;108234;1253;71407;-66
2024/03/14 03:24:45;;;;;;;13.70;8.30;;;;;;;3.09;76.12;100718.21;108209;1252;71394;-67
2024/03/14 03:27:15;;;;;;;14.50;8.30;;;;;;;3.11;76.24;100722.98;108168;1258;59689;-67
2024/03/14 03:29:43;;;;;;;12.00;8.00;;;;;;;3.11;76.07;100720.34;108206;1253;61099;-67
2024/03/14 03:32:11;;;;;;;13.50;7.90;;;;;;;3.12;76.18;100721.38;108224;1253;73435;-67
2024/03/14 03:34:39;;;;;;;13.30;8.80;;;;;;;3.12;76.16;100722.27;108236;1253;71574;-67
2024/03/14 03:37:07;;;;;;;13.80;8.20;;;;;;;3.12;76.29;100717.48;108258;1253;71102;-68
2024/03/14 03:39:35;;;;;;;13.40;7.60;;;;;;;3.13;76.20;100721.55;108178;1253;61181;-67
2024/03/14 03:42:02;;;;;;;12.50;8.00;;;;;;;3.13;75.89;100720.02;108319;1254;59986;-67
2024/03/14 03:44:30;;;;;;;12.00;7.40;;;;;;;3.12;76.04;100721.19;108230;1253;73457;-67
2024/03/14 03:46:58;;;;;;;11.50;7.30;;;;;;;3.12;75.92;100717.45;108103;1253;72703;-67
2024/03/14 03:49:27;;;;;;;12.40;8.00;;;;;;;3.13;75.82;100715.63;108312;1253;71164;-66
2024/03/14 03:51:55;;;;;;;12.60;7.50;;;;;;;3.13;75.66;100715.80;108215;1257;61300;-66
2024/03/14 03:54:23;;;;;;;10.80;7.50;;;;;;;3.14;75.64;100714.00;108151;1252;61001;-66
2024/03/14 03:56:54;;;;;;;13.80;7.60;;;;;;;3.17;75.56;100711.03;108087;1253;74623;-66
2024/03/14 03:59:22;;;;;;;10.70;7.10;;;;;;;3.20;75.46;100714.84;108002;1253;71434;-67
2024/03/14 04:01:50;;;;;;;15.30;7.90;;;;;;;3.23;75.44;100717.73;108119;1253;72298;-66
2024/03/14 04:04:18;;;;;;;12.90;7.70;;;;;;;3.27;75.45;100715.25;108034;1254;61233;-66
2024/03/14 04:06:47;;;;;;;14.40;7.50;;;;;;;3.31;75.25;100711.78;108127;1257;61090;-67
2024/03/14 04:09:15;;;;;;;12.40;7.30;;;;;;;3.34;75.00;100716.61;108326;1253;74696;-67
2024/03/14 04:11:44;;;;;;;14.40;7.40;;;;;;;3.35;74.57;100717.51;108209;1253;71262;-67
2024/03/14 04:14:11;;;;;;;11.80;6.80;;;;;;;3.36;74.41;100726.00;108157;1252;73525;-67
2024/03/14 04:16:39;;;;;;;11.80;7.50;;;;;;;3.38;74.27;100725.42;108136;1253;62064;-68
2024/03/14 04:19:10;;;;;;;11.00;6.70;;;;;;;3.38;74.13;100729.37;108109;1253;61201;-67
2024/03/14 04:21:37;;;;;;;13.20;7.30;;;;;;;3.36;74.07;100736.85;107992;1256;74697;-66
2024/03/14 04:24:06;;;;;;;12.80;7.70;;;;;;;3.34;74.15;100736.77;108173;1257;71720;-66
2024/03/14 04:26:34;;;;;;;14.50;7.50;;;;;;;3.35;74.34;100736.08;108165;1252;72859;-66
2024/03/14 04:29:06;;;;;;;15.10;8.10;;;;;;;3.38;74.77;100737.98;108264;1252;61125;-66
2024/03/14 04:31:37;;;;;;;14.30;7.50;;;;;;;3.38;75.07;100741.15;108178;1253;61116;-65
2024/03/14 04:34:05;;;;;;;12.10;7.50;;;;;;;3.36;75.30;100739.61;108015;1253;73475;-66
2024/03/14 04:36:33;;;;;;;11.90;7.60;;;;;;;3.37;75.50;100739.16;108154;1252;72727;-66
2024/03/14 04:39:01;;;;;;;12.10;7.40;;;;;;;3.37;75.83;100743.47;108184;1253;71387;-66
2024/03/14 04:41:30;;;;;;;13.10;7.20;;;;;;;3.37;76.12;100746.27;108186;1253;61142;-67
2024/03/14 04:43:58;;;;;;;12.70;6.60;;;;;;;3.37;76.58;100746.88;108065;1253;60025;-67
2024/03/14 04:46:26;;;;;;;10.40;6.50;;;;;;;3.36;77.13;100751.07;108084;1258;73374;-66
2024/03/14 04:48:54;;;;;;;11.90;6.60;;;;;;;3.34;77.56;100754.48;108207;1253;71809;-69
2024/03/14 04:51:23;;;;;;;11.20;6.50;;;;;;;3.33;78.24;100757.48;108208;1251;72664;-67
2024/03/14 04:53:51;;;;;;;12.30;7.30;;;;;;;3.30;78.71;100758.21;108271;1253;61209;-68
2024/03/14 04:56:23;;;;;;;10.00;6.60;;;;;;;3.29;79.37;100758.09;108265;1252;61080;-67
2024/03/14 04:58:51;;;;;;;10.50;7.20;;;;;;;3.30;80.01;100760.69;108229;1253;73820;-66
2024/03/14 05:01:19;;;;;;;11.60;7.10;;;;;;;3.29;80.54;100764.30;108181;1253;71430;-67
2024/03/14 05:03:47;;;;;;;11.50;6.40;;;;;;;3.31;80.84;100764.27;108180;1253;71418;-67
2024/03/14 05:06:14;;;;;;;13.80;7.50;;;;;;;3.32;81.33;100767.96;108021;1256;60145;-67
2024/03/14 05:08:43;;;;;;;12.40;7.50;;;;;;;3.29;81.42;100769.58;108010;1252;61113;-68
2024/03/14 05:11:11;;;;;;;10.20;6.50;;;;;;;3.27;81.80;100768.53;108072;1252;73427;-67
2024/03/14 05:13:39;;;;;;;10.10;6.20;;;;;;;3.24;82.31;100772.46;108199;1253;71562;-68
2024/03/14 05:16:09;;;;;;;12.30;6.70;;;;;;;3.19;83.74;100777.67;108279;1251;71827;-68
2024/03/14 05:18:37;;;;;;;10.80;6.30;;;;;;;3.11;85.30;100782.22;108198;1253;61225;-69
2024/03/14 05:21:10;;;;;;;12.40;6.50;;;;;;;3.04;88.12;100788.70;108216;1253;62026;-68
2024/03/14 05:23:38;;;;;;;11.40;6.70;;;;;;;2.95;91.23;100794.25;108249;1253;74499;-67
2024/03/14 05:26:07;;;;;;;10.80;6.40;;;;;;;2.83;94.87;100796.88;108197;1253;71601;-67
2024/03/14 05:28:35;;;;;;;11.30;6.90;;;;;;;2.73;98.78;100798.10;108256;1253;71333;-68
2024/03/14 05:31:03;;;;;;;11.90;6.20;;;;;;;2.65;100.00;100794.43;108227;1253;61131;-66
2024/03/14 05:33:31;;;;;;;9.40;6.30;;;;;;;2.60;100.00;100792.71;108220;1252;61009;-67
2024/03/14 05:35:59;;;;;;;11.30;6.90;;;;;;;2.56;100.00;100793.14;108225;1253;73442;-67
2024/03/14 05:38:27;;;;;;;9.40;6.40;;;;;;;2.57;100.00;100795.14;108094;1253;71161;-67
2024/03/14 05:40:54;;;;;;;10.70;6.60;;;;;;;2.57;100.00;100793.23;108101;1253;233957;-66
2024/03/14 05:43:22;;;;;;;12.30;7.20;;;;;;;2.57;100.00;100794.81;108229;1253;60952;-68
2024/03/14 05:45:50;;;;;;;11.20;7.70;;;;;;;2.58;100.00;100795.91;108297;1253;61205;-67
2024/03/14 05:48:22;;;;;;;10.40;7.10;;;;;;;2.62;100.00;100793.25;108319;1253;72940;-67
2024/03/14 05:50:51;;;;;;;11.20;7.90;;;;;;;2.64;100.00;100793.82;108095;1253;72701;-68
2024/03/14 05:53:19;;;;;;;10.70;7.80;;;;;;;2.69;100.00;100797.53;108011;1253;72665;-67
2024/03/14 05:55:47;;;;;;;13.90;7.90;;;;;;;2.74;100.00;100799.98;108084;1254;59904;-68
2024/03/14 05:58:15;;;;;;;12.40;9.20;;;;;;;2.79;100.00;100799.17;108224;1253;61596;-68
2024/03/14 06:00:43;;;;;;;14.30;9.70;;;;;;;2.82;100.00;100804.13;108360;1253;74088;-68
2024/03/14 06:03:13;;;;;;;13.20;10.50;;;;;;;2.82;100.00;100803.36;108271;1253;74233;-68
2024/03/14 06:05:41;;;;;;;16.60;11.50;;;;;;;2.84;100.00;100799.27;108103;1253;73932;-67
2024/03/14 06:08:09;;;;;;;14.70;10.50;;;;;;;2.87;100.00;100799.10;108090;1253;62056;-69
2024/03/14 06:10:37;;;;;;;15.00;11.10;;;;;;;2.87;100.00;100800.69;108171;1253;61314;-68
2024/03/14 06:13:05;;;;;;;14.40;10.70;;;;;;;2.89;100.00;100807.23;108259;1253;73922;-69
2024/03/14 06:15:35;;;;;;;17.50;12.60;;;;;;;2.90;100.00;100805.00;108246;1253;75282;-68
2024/03/14 06:18:05;;;;;;;16.60;12.00;;;;;;;2.94;100.00;100801.43;108244;1253;71402;-69
2024/03/14 06:20:34;;;;;;;14.70;11.30;;;;;;;3.04;100.00;100799.50;108509;1253;61422;-70
2024/03/14 06:23:02;;;;;;;17.20;11.90;;;;;;;3.12;100.00;100803.41;108197;1253;62224;-68
2024/03/14 06:25:32;;;;;;;17.80;12.60;;;;;;;3.15;100.00;100806.09;108260;1253;73378;-69
2024/03/14 06:28:02;;;;;;;19.70;13.80;;;;;;;3.22;100.00;100816.66;108261;1253;74993;-68
2024/03/14 06:30:30;;;;;;;20.00;13.80;;;;;;;3.30;100.00;100819.79;108183;1253;72152;-68
2024/03/14 06:32:58;;;;;;;19.30;14.20;;;;;;;3.35;100.00;100813.00;108161;1254;63111;-69
2024/03/14 06:35:28;;;;;;;18.50;13.80;;;;;;;3.37;100.00;100810.45;108205;1253;61704;-70
2024/03/14 06:37:56;;;;;;;16.80;13.30;;;;;;;3.42;100.00;100811.78;108272;1253;73508;-68
2024/03/14 06:40:24;;;;;;;17.80;14.40;;;;;;;3.48;100.00;100814.35;108294;1253;73819;-67
2024/03/14 06:42:53;;;;;;;18.80;13.70;;;;;;;3.51;100.00;100812.04;108235;1253;74923;-68
2024/03/14 06:45:22;;;;;;;19.40;14.50;;;;;;;3.58;100.00;100809.42;108282;1253;61258;-67
2024/03/14 06:47:50;;;;;;;19.20;14.20;;;;;;;3.65;100.00;100812.48;108257;1253;61132;-68
2024/03/14 06:50:19;;;;;;;18.70;14.80;;;;;;;3.74;100.00;100815.75;108215;1253;75078;-66
2024/03/14 06:52:48;;;;;;;19.90;14.70;;;;;;;3.83;100.00;100815.17;108046;1253;74994;-68
2024/03/14 06:55:16;;;;;;;18.70;14.10;;;;;;;3.93;100.00;100815.88;108062;1253;74040;-67
2024/03/14 06:57:47;;;;;;;17.70;13.40;;;;;;;4.04;100.00;100814.67;108007;1253;61237;-68
2024/03/14 07:00:22;;;;;;;18.40;13.70;;;;;;;4.09;100.00;100816.78;108124;1253;61187;-67
2024/03/14 07:02:50;;;;;;;15.80;12.90;;;;;;;4.07;100.00;100819.91;108094;1253;76803;-68
2024/03/14 07:05:22;;;;;;;18.40;13.90;;;;;;;4.07;100.00;100816.89;108054;1253;73263;-67
2024/03/14 07:07:50;;;;;;;16.90;12.90;;;;;;;4.10;100.00;100817.59;107977;1253;73125;-68
2024/03/14 07:10:19;;;;;;;21.90;14.10;;;;;;;4.15;100.00;100819.16;108127;1253;60915;-67
2024/03/14 07:12:47;;;;;;;19.70;14.30;;;;;;;4.18;100.00;100819.40;108022;1252;62263;-68
2024/03/14 07:15:17;;;;;;;15.50;12.20;;;;;;;4.20;100.00;100821.63;108144;1253;76892;-67
2024/03/14 07:17:46;;;;;;;18.80;13.90;;;;;;;4.20;100.00;100826.23;108240;1253;71890;-68
2024/03/14 07:20:18;;;;;;;19.30;14.70;;;;;;;4.25;100.00;100824.98;108182;1253;72815;-68
2024/03/14 07:22:46;;;;;;;20.10;14.60;;;;;;;4.28;100.00;100827.21;108279;1254;62996;-68
2024/03/14 07:25:17;;;;;;;19.80;14.70;;;;;;;4.31;100.00;100831.93;108292;1252;62131;-67
2024/03/14 07:27:47;;;;;;;21.90;15.50;;;;;;;4.29;100.00;100833.48;108228;1253;75154;-68
2024/03/14 07:30:15;;;;;;;20.50;15.20;;;;;;;4.32;100.00;100833.21;108295;1252;72206;-67
2024/03/14 07:32:45;;;;;;;19.30;14.70;;;;;;;4.37;100.00;100833.73;108243;1253;71516;-68
2024/03/14 07:35:19;;;;;;;22.30;15.80;;;;;;;4.40;100.00;100835.67;108250;1253;62978;-67
2024/03/14 07:37:47;;;;;;;20.20;16.00;;;;;;;4.43;100.00;100834.35;108270;1253;62381;-67
2024/03/14 07:40:19;;;;;;;21.90;15.50;;;;;;;4.45;100.00;100838.02;108259;1252;73853;-67
2024/03/14 07:43:20;;;;;;;;;;;;;;;4.48;100.00;100835.48;108279;1253;74306;-67
2024/03/14 07:45:48;;;;;;;25.30;17.20;;;;;;;4.47;100.00;100835.77;108185;1253;72656;-67
2024/03/14 07:48:17;;;;;;;20.00;15.80;;;;;;;4.52;100.00;100837.26;108210;1253;61115;-67
2024/03/14 07:50:46;;;;;;;22.30;16.10;;;;;;;4.58;100.00;100839.77;108135;1253;61401;-68
2024/03/14 07:53:14;;;;;;;22.90;17.10;;;;;;;4.64;100.00;100839.65;108110;1253;76850;-68
2024/03/14 07:55:41;;;;;;;21.20;16.10;;;;;;;4.71;100.00;100837.30;108110;1253;71737;-69
2024/03/14 07:58:10;;;;;;;22.40;17.30;;;;;;;4.86;100.00;100839.09;108104;1256;72503;-68
2024/03/14 08:00:38;;;;;;;21.30;17.30;;;;;;;4.98;100.00;100836.17;108043;1256;61083;-67
2024/03/14 08:03:05;;;;;;;20.90;16.30;;;;;;;5.14;100.00;100838.26;108139;1253;62018;-68
2024/03/14 08:05:34;;;;;;;19.60;15.70;;;;;;;5.22;100.00;100840.02;108267;1252;76771;-66
2024/03/14 08:08:02;;;;;;;19.10;15.00;;;;;;;5.27;100.00;100839.77;108258;1254;73204;-67
2024/03/14 08:10:46;;;;;;;18.90;14.30;;;;;;;5.41;100.00;100834.57;108266;1253;74927;-67
2024/03/14 08:13:20;;;;;;;17.60;13.90;;;;;;;5.59;99.41;100834.64;108246;1253;61264;-68
2024/03/14 08:15:53;;;;;;;17.60;13.50;;;;;;;5.66;97.35;100831.88;108155;1253;62572;-67
2024/03/14 08:18:23;;;;;;;15.90;12.80;;;;;;;5.72;95.18;100832.69;108157;1256;75926;-66
2024/03/14 08:20:57;;;;;;;19.10;14.20;;;;;;;5.77;93.09;100830.03;108059;1253;74962;-66
2024/03/14 08:23:26;;;;;;;15.10;12.00;;;;;;;5.85;90.22;100831.09;108294;1253;74996;-67
2024/03/14 08:25:56;;;;;;;14.90;11.80;;;;;;;5.75;84.05;100827.31;108335;1254;61236;-66
2024/03/14 08:28:24;;;;;;;16.50;11.90;;;;;;;5.52;81.30;100828.73;108096;1253;61890;-68
2024/03/14 08:30:52;;;;;;;14.60;11.40;;;;;;;5.38;81.25;100827.75;108221;1253;73801;-67
2024/03/14 08:33:22;;;;;;;17.00;12.50;;;;;;;5.32;81.24;100827.91;108252;1253;75009;-66
2024/03/14 08:35:52;;;;;;;;;;;;;;;5.31;81.29;100832.45;108007;1253;70636;-66
2024/03/14 08:38:21;;;;;;;14.80;11.20;;;;;;;5.33;81.39;100830.30;108255;1253;61160;-67
2024/03/14 08:40:49;;;;;;;15.40;11.50;;;;;;;5.42;81.97;100826.09;108190;1253;61079;-66
2024/03/14 08:43:17;;;;;;;14.20;11.50;;;;;;;5.57;82.47;100825.35;108082;1257;75003;-66
2024/03/14 08:45:45;;;;;;;13.00;10.10;;;;;;;5.71;81.54;100821.80;108132;1253;72344;-67
2024/03/14 08:48:14;;;;;;;12.80;9.70;;;;;;;5.81;80.24;100820.28;108350;1256;71489;-69
2024/03/14 08:50:41;;;;;;;14.60;10.70;;;;;;;5.88;79.81;100822.83;108204;1253;61465;-68
2024/03/14 08:53:12;;;;;;;12.80;9.90;;;;;;;5.83;77.78;100822.77;108396;1253;61240;-67
2024/03/14 08:55:54;;;;;;;14.00;10.40;;;;;;;5.81;77.10;100821.63;108231;1253;76828;-67
2024/03/14 08:58:25;;;;;;;;;;;;;;;5.85;75.96;100823.06;108292;1253;75072;-66
2024/03/14 09:00:56;;;;;;;12.30;9.80;;;;;;;5.86;75.36;100823.70;108304;1253;74404;-66
2024/03/14 09:03:24;;;;;;;13.70;10.40;;;;;;;5.90;74.76;100823.27;108286;1252;61284;-67
2024/03/14 09:05:52;;;;;;;13.90;10.80;;;;;;;5.94;74.78;100823.73;108396;1252;61240;-67
2024/03/14 09:08:24;;;;;;;13.80;9.80;;;;;;;6.03;74.89;100825.16;108252;1253;76834;-66
2024/03/14 09:10:53;;;;;;;14.20;10.20;;;;;;;6.11;74.90;100826.95;108212;1253;74996;-67
2024/03/14 09:13:22;;;;;;;13.30;10.00;;;;;;;6.18;75.05;100829.27;108196;1253;72487;-67
2024/03/14 09:15:50;;;;;;;13.80;10.60;;;;;;;6.25;74.59;100830.86;108218;1254;61121;-68
2024/03/14 09:18:24;;;;;;;13.20;10.30;;;;;;;6.32;74.77;100829.33;108208;1253;61077;-68
2024/03/14 09:20:58;;;;;;;14.00;10.50;;;;;;;6.39;74.21;100827.48;108284;1253;75996;-68
2024/03/14 09:23:27;;;;;;;12.80;9.60;;;;;;;6.46;73.44;100827.69;108195;1253;75006;-68
2024/03/14 09:25:59;;;;;;;14.00;10.20;;;;;;;6.51;71.74;100826.64;108233;1253;74969;-67
2024/03/14 09:28:27;;;;;;;14.40;10.10;;;;;;;6.55;70.54;100827.13;108175;1253;61260;-67
2024/03/14 09:30:58;;;;;;;12.40;10.00;;;;;;;6.54;69.92;100824.92;108190;1254;61126;-67
2024/03/14 09:33:28;;;;;;;13.60;10.30;;;;;;;6.54;69.80;100822.59;108248;1256;74973;-67
2024/03/14 09:35:56;;;;;;;13.80;10.30;;;;;;;6.62;69.90;100821.65;108214;1253;72282;-67
2024/03/14 09:38:24;;;;;;;13.40;10.20;;;;;;;6.77;70.21;100824.80;108180;1255;74838;-67
2024/03/14 09:40:52;;;;;;;14.70;10.20;;;;;;;6.91;69.43;100819.96;108237;1253;61205;-67
2024/03/14 09:43:32;;;;;;;12.00;9.60;;;;;;;7.01;68.57;100822.05;108021;1253;61253;-67
2024/03/14 09:46:00;;;;;;;15.00;10.60;;;;;;;7.11;68.06;100820.89;108101;1253;75012;-66
2024/03/14 09:48:31;;;;;;;13.90;10.50;;;;;;;7.14;66.65;100821.77;108350;1253;75120;-66
2024/03/14 09:50:59;;;;;;;11.80;10.30;;;;;;;7.13;65.24;100819.88;108323;1253;71687;-67
2024/03/14 09:53:30;;;;;;;11.60;9.90;;;;;;;7.06;64.90;100819.23;108080;1259;61121;-67
2024/03/14 09:55:58;;;;;;;13.80;10.30;;;;;;;7.00;65.64;100819.89;108280;1253;61287;-67
2024/03/14 09:58:26;;;;;;;13.70;10.60;;;;;;;7.00;65.30;100817.29;108185;1255;75098;-67
2024/03/14 10:00:54;;;;;;;12.80;11.00;;;;;;;7.04;64.91;100817.48;108347;1253;73236;-67
2024/03/14 10:03:21;;;;;;;13.90;10.90;;;;;;;7.06;64.06;100816.96;108245;1254;73088;-67
2024/03/14 10:05:52;;;;;;;12.00;10.30;;;;;;;7.06;64.01;100815.41;108221;1253;61263;-67
2024/03/14 10:08:20;;;;;;;13.20;9.80;;;;;;;7.09;64.05;100817.24;108091;1253;61438;-68
2024/03/14 10:10:48;;;;;;;13.70;10.00;;;;;;;7.06;62.60;100819.57;108235;1256;77240;-68
2024/03/14 10:13:25;;;;;;;12.80;9.80;;;;;;;7.05;62.18;100819.39;108176;1253;73138;-67
2024/03/14 10:15:54;;;;;;;13.90;10.40;;;;;;;7.05;62.84;100814.98;108204;1255;74908;-68
2024/03/14 10:18:25;;;;;;;12.20;9.60;;;;;;;7.11;63.73;100817.34;108059;1254;61332;-68
2024/03/14 10:20:53;;;;;;;13.50;10.10;;;;;;;7.15;63.13;100819.16;108148;1254;61430;-66
2024/03/14 10:23:21;;;;;;;12.50;10.50;;;;;;;7.11;62.74;100820.68;108060;1253;75758;-67
2024/03/14 10:25:53;;;;;;;14.70;10.90;;;;;;;7.07;62.52;100818.58;108073;1259;72311;-66
2024/03/14 10:28:28;;;;;;;12.10;9.90;;;;;;;7.08;62.69;100819.91;108369;1254;74899;-66
2024/03/14 10:31:04;;;;;;;11.80;9.10;;;;;;;7.11;63.21;100821.21;108329;1253;61253;-66
2024/03/14 10:33:32;;;;;;;12.20;10.00;;;;;;;7.20;63.38;100821.45;108144;1254;61074;-67
2024/03/14 10:36:02;;;;;;;14.60;10.30;;;;;;;7.20;62.70;100818.54;108127;1253;76564;-67
2024/03/14 10:38:35;;;;;;;12.30;10.40;;;;;;;7.18;62.48;100815.30;108251;1253;72059;-66
2024/03/14 10:41:05;;;;;;;13.50;10.00;;;;;;;7.17;62.96;100815.32;108119;1253;74999;-67
2024/03/14 10:43:41;;;;;;;13.90;10.20;;;;;;;7.19;63.23;100815.41;108217;1254;61475;-67
2024/03/14 10:46:12;;;;;;;12.00;9.90;;;;;;;7.20;62.49;100810.19;108210;1253;62337;-66
2024/03/14 10:48:44;;;;;;;12.40;9.80;;;;;;;7.20;62.40;100808.65;108270;1255;76751;-66
2024/03/14 10:51:14;;;;;;;12.80;10.30;;;;;;;7.19;61.45;100804.24;108083;1255;75222;-66
2024/03/14 10:53:45;;;;;;;12.30;9.70;;;;;;;7.12;60.48;100804.29;108173;1257;74888;-66
2024/03/14 10:56:15;;;;;;;13.40;9.90;;;;;;;7.06;60.18;100808.50;108249;1257;61249;-66
2024/03/14 10:58:46;;;;;;;12.10;9.60;;;;;;;7.04;60.44;100805.63;108206;1253;61224;-66
2024/03/14 11:01:13;;;;;;;13.10;9.30;;;;;;;7.08;61.43;100808.96;108261;1253;75083;-66
2024/03/14 11:03:42;;;;;;;14.00;10.10;;;;;;;7.12;62.14;100806.64;108269;1255;75037;-67
2024/03/14 11:06:19;;;;;;;12.20;9.60;;;;;;;7.12;61.94;100810.20;108177;1257;74905;-67
2024/03/14 11:08:47;;;;;;;13.10;9.00;;;;;;;7.14;62.17;100812.31;108237;1253;61280;-65
2024/03/14 11:11:18;;;;;;;11.70;8.50;;;;;;;7.15;61.83;100809.23;108245;1253;60137;-66
2024/03/14 11:13:51;;;;;;;11.50;9.20;;;;;;;7.18;61.67;100808.81;108234;1256;75101;-67
2024/03/14 11:16:18;;;;;;;10.50;8.40;;;;;;;7.16;60.72;100812.46;108083;1254;75149;-67
2024/03/14 11:18:53;;;;;;;11.20;8.70;;;;;;;7.07;59.98;100811.93;108229;1257;73955;-67
2024/03/14 11:21:25;;;;;;;12.90;9.40;;;;;;;6.99;60.03;100813.64;108183;1256;61464;-66